Terminal Aerodrome Forecast
Issued by NWS

Home | Current Version | Previous Version | Text Only | Print | Product List | Glossary On
Versions: 1 2 3 4 5 6 7 8 9 10 11 12 13 14
000
FTUS42 TJSJ 011129
TAFJMZ
TAF
TJMZ 011129Z 0112/0212 28005KT P6SM FEW025 SCT040
     FM011530 29008KT P6SM VCSH SCT030 BKN040
      TEMPO 0118/0121 VRB15G25KT 5SM TSRA BKN030CB
     FM012230 08010KT P6SM FEW025 SCT050
      AMD NOT SKED TIL 011500=

USA.gov is the U.S. government's official web portal to all federal, state and local government web resources and services.